Time;durP1;ratioP1;P1;durP2;ratioP2;P2;SDS_P1;SDS_P2;PMS_P1;PMS_P2;Temp;Humidity;BMP_temperature;BMP_pressure;BME280_temperature;BME280_humidity;BME280_pressure;Samples;Min_cycle;Max_cycle;Signal;HPM_P1;HPM_P2
2022/08/24 00:01:15;;;;;;;;;;;;;;;25.08;48.47;100644.34;4942505;28;7357;-75
2022/08/24 00:03:43;;;;;;;;;;;;;;;25.06;48.27;100643.50;4962620;28;7876;-75
2022/08/24 00:06:14;;;;;;;;;;;;;;;25.02;48.68;100643.53;4968406;28;7318;-75
2022/08/24 00:08:41;;;;;;;;;;;;;;;24.98;48.32;100647.94;4994098;28;7185;-75
2022/08/24 00:11:07;;;;;;;;;;;;;;;24.94;48.79;100643.59;4995421;28;6979;-75
2022/08/24 00:13:34;;;;;;;;;;;;;;;24.92;48.48;100642.75;4977186;28;6959;-75
2022/08/24 00:16:00;;;;;;;;;;;;;;;24.89;48.87;100650.63;4962185;28;6788;-75
2022/08/24 00:18:26;;;;;;;;;;;;;;;24.84;48.97;100650.66;4978729;28;7058;-75
2022/08/24 00:20:52;;;;;;;;;;;;;;;24.80;48.95;100646.31;4967124;28;7828;-75
2022/08/24 00:23:17;;;;;;;;;;;;;;;24.75;48.99;100645.44;4976879;28;6832;-75
2022/08/24 00:25:43;;;;;;;;;;;;;;;24.72;49.18;100656.81;4957095;28;7908;-75
2022/08/24 00:28:10;;;;;;;;;;;;;;;24.67;49.09;100650.75;4962934;28;6836;-75
2022/08/24 00:30:35;;;;;;;;;;;;;;;24.64;48.82;100650.78;4960117;28;7063;-75
2022/08/24 00:33:01;;;;;;;;;;;;;;;24.60;49.52;100646.41;4980893;28;7296;-75
2022/08/24 00:35:27;;;;;;;;;;;;;;;24.55;49.49;100649.94;4992923;28;6788;-75
2022/08/24 00:37:54;;;;;;;;;;;;;;;24.54;49.93;100652.56;4966485;28;7331;-75
2022/08/24 00:40:32;;;;;;;;;;;;;;;24.53;49.55;100651.72;4990784;28;6808;-75
2022/08/24 00:43:03;;;;;;;;;;;;;;;24.49;49.88;100651.75;4962564;28;6923;-75
2022/08/24 00:45:43;;;;;;;;;;;;;;;24.46;50.35;100660.47;4958070;28;6796;-75
2022/08/24 00:48:20;;;;;;;;;;;;;;;24.45;50.05;100660.47;4960407;28;7246;-75
2022/08/24 00:50:58;;;;;;;;;;;;;;;24.41;49.97;100660.50;4967304;28;6801;-75
2022/08/24 00:53:38;;;;;;;;;;;;;;;24.38;50.06;100657.88;4961228;28;6896;-75
2022/08/24 00:56:13;;;;;;;;;;;;;;;24.34;49.75;100661.41;4993331;28;6824;-75
2022/08/24 00:58:51;;;;;;;;;;;;;;;24.31;50.24;100655.31;4976263;28;6824;-75
2022/08/24 01:01:17;;;;;;;;;;;;;;;24.28;50.22;100650.94;4942657;28;6992;-75
2022/08/24 01:03:45;;;;;;;;;;;;;;;24.25;49.91;100653.59;4963132;28;6968;-75
2022/08/24 01:06:12;;;;;;;;;;;;;;;24.23;50.34;100648.34;4991671;28;7042;-75
2022/08/24 01:08:39;;;;;;;;;;;;;;;24.22;50.21;100646.63;4977804;28;6961;-75
2022/08/24 01:11:18;;;;;;;;;;;;;;;24.17;50.19;100651.03;4960079;28;7090;-75
2022/08/24 01:13:48;;;;;;;;;;;;;;;24.12;50.37;100647.53;4959723;28;7571;-75
2022/08/24 01:18:48;;;;;;;;;;;;;;;24.10;51.08;100650.19;4943609;28;6990;-75
2022/08/24 01:19:32;;;;;;;;;;;;;;;24.06;50.91;100661.53;4959367;28;7078;-75
2022/08/24 01:22:35;;;;;;;;;;;;;;;24.00;50.79;100654.53;4962798;28;7621;-75
2022/08/24 01:25:01;;;;;;;;;;;;;;;23.93;51.31;100652.81;4957563;28;7302;-75
2022/08/24 01:27:28;;;;;;;;;;;;;;;23.88;51.66;100651.97;4960529;28;7199;-75
2022/08/24 01:29:56;;;;;;;;;;;;;;;23.84;51.35;100660.69;4971812;28;6807;-75
2022/08/24 01:32:24;;;;;;;;;;;;;;;23.81;51.92;100658.09;4956835;28;6876;-75
2022/08/24 01:34:50;;;;;;;;;;;;;;;23.80;51.40;100658.97;4973766;28;8160;-75
2022/08/24 01:37:16;;;;;;;;;;;;;;;23.78;51.75;100655.50;4973022;28;7052;-75
2022/08/24 01:39:45;;;;;;;;;;;;;;;23.76;51.78;100651.97;4959061;28;7241;-75
2022/08/24 01:42:13;;;;;;;;;;;;;;;23.74;51.48;100657.25;4957516;28;6863;-75
2022/08/24 01:44:41;;;;;;;;;;;;;;;23.71;52.22;100658.13;4984352;28;8205;-75
2022/08/24 01:47:10;;;;;;;;;;;;;;;23.68;51.48;100652.91;4972407;28;6811;-75
2022/08/24 01:49:42;;;;;;;;;;;;;;;23.66;51.49;100653.78;4993142;28;6815;-75
2022/08/24 01:52:14;;;;;;;;;;;;;;;23.62;51.60;100654.66;4973027;28;6994;-75
2022/08/24 01:54:41;;;;;;;;;;;;;;;23.58;52.05;100659.88;4964143;28;7278;-75
2022/08/24 01:57:07;;;;;;;;;;;;;;;23.56;51.93;100661.63;4968672;28;6993;-75
2022/08/24 01:59:33;;;;;;;;;;;;;;;23.54;52.14;100658.16;4991471;28;7226;-75
2022/08/24 02:02:20;;;;;;;;;;;;;;;23.54;51.91;100665.13;4961011;28;6796;-75
2022/08/24 02:04:46;;;;;;;;;;;;;;;23.51;51.92;100665.13;4992956;28;6999;-75
2022/08/24 02:07:12;;;;;;;;;;;;;;;23.50;51.94;100673.84;4959331;28;7821;-75
2022/08/24 02:09:37;;;;;;;;;;;;;;;23.46;51.93;100673.00;4993944;28;6961;-75
2022/08/24 02:12:05;;;;;;;;;;;;;;;23.43;52.45;100665.16;4978960;28;7274;-75
2022/08/24 02:14:31;;;;;;;;;;;;;;;23.40;52.33;100659.91;4980463;28;7327;-75
2022/08/24 02:16:57;;;;;;;;;;;;;;;23.38;52.65;100667.78;4993137;28;6835;-75
2022/08/24 02:19:25;;;;;;;;;;;;;;;23.36;52.35;100664.25;4976344;28;8531;-75
2022/08/24 02:21:51;;;;;;;;;;;;;;;23.35;52.99;100661.66;4977866;28;7189;-75
2022/08/24 02:24:17;;;;;;;;;;;;;;;23.33;52.16;100666.91;4977399;28;6816;-76
2022/08/24 02:26:42;;;;;;;;;;;;;;;23.31;52.39;100671.25;4961439;28;6800;-75
2022/08/24 02:29:08;;;;;;;;;;;;;;;23.29;52.59;100670.41;4962163;28;6993;-75
2022/08/24 02:31:35;;;;;;;;;;;;;;;23.28;52.93;100673.88;4962671;28;8922;-75
2022/08/24 02:34:01;;;;;;;;;;;;;;;23.24;52.63;100674.72;4966999;28;7353;-75
2022/08/24 02:36:28;;;;;;;;;;;;;;;23.22;52.43;100672.09;4952411;28;7237;-76
2022/08/24 02:38:54;;;;;;;;;;;;;;;23.18;52.97;100670.34;4974992;28;7136;-75
2022/08/24 02:41:23;;;;;;;;;;;;;;;23.14;53.00;100666.84;4964955;28;7231;-75
2022/08/24 02:43:50;;;;;;;;;;;;;;;23.10;52.55;100657.28;4987682;28;7020;-76
2022/08/24 02:46:24;;;;;;;;;;;;;;;23.07;52.79;100657.28;4957263;28;6973;-75
2022/08/24 02:48:50;;;;;;;;;;;;;;;23.04;53.25;100665.13;4962060;28;6952;-75
2022/08/24 02:51:34;;;;;;;;;;;;;;;23.00;53.08;100663.38;4959276;28;6860;-75
2022/08/24 02:54:02;;;;;;;;;;;;;;;22.98;53.49;100665.09;4975781;28;6860;-76
2022/08/24 02:56:28;;;;;;;;;;;;;;;22.96;53.32;100674.69;4954984;28;6977;-76
2022/08/24 02:58:56;;;;;;;;;;;;;;;22.95;53.74;100667.72;4974120;28;6792;-76
2022/08/24 03:01:21;;;;;;;;;;;;;;;22.92;53.40;100663.34;4963055;28;6796;-76
2022/08/24 03:03:47;;;;;;;;;;;;;;;22.92;53.63;100667.72;4956515;28;7862;-76
2022/08/24 03:06:13;;;;;;;;;;;;;;;22.89;53.65;100668.59;4956424;28;7266;-75
2022/08/24 03:08:39;;;;;;;;;;;;;;;22.86;53.93;100663.38;4971802;28;6852;-75
2022/08/24 03:11:07;;;;;;;;;;;;;;;22.84;54.19;100665.09;4958578;28;6934;-75
2022/08/24 03:13:34;;;;;;;;;;;;;;;22.80;53.88;100665.97;4958450;28;7003;-75
2022/08/24 03:16:01;;;;;;;;;;;;;;;22.77;54.46;100668.59;4971322;28;8019;-75
2022/08/24 03:18:27;;;;;;;;;;;;;;;22.75;54.46;100666.84;4973890;28;6966;-75
2022/08/24 03:20:55;;;;;;;;;;;;;;;22.73;54.39;100658.09;4972046;28;7142;-75
2022/08/24 03:23:21;;;;;;;;;;;;;;;22.73;54.24;100663.34;4958816;28;7198;-75
2022/08/24 03:25:47;;;;;;;;;;;;;;;22.72;54.19;100664.19;4960806;28;6808;-75
2022/08/24 03:28:13;;;;;;;;;;;;;;;22.70;54.46;100668.56;4953103;28;6792;-75
2022/08/24 03:30:39;;;;;;;;;;;;;;;22.70;54.61;100665.09;4953190;28;7287;-75
2022/08/24 03:33:06;;;;;;;;;;;;;;;22.68;54.70;100658.97;4954401;28;6792;-76
2022/08/24 03:35:32;;;;;;;;;;;;;;;22.66;54.46;100660.72;4959362;28;7028;-75
2022/08/24 03:37:59;;;;;;;;;;;;;;;22.64;54.42;100659.84;4975602;28;8030;-75
2022/08/24 03:40:25;;;;;;;;;;;;;;;22.61;54.52;100658.97;4959111;28;8283;-75
2022/08/24 03:42:52;;;;;;;;;;;;;;;22.61;54.59;100658.09;4979249;28;7166;-75
2022/08/24 03:45:20;;;;;;;;;;;;;;;22.57;54.70;100657.22;4993878;28;6800;-76
2022/08/24 03:47:46;;;;;;;;;;;;;;;22.56;54.65;100660.69;4956560;28;6804;-76
2022/08/24 03:50:12;;;;;;;;;;;;;;;22.57;54.47;100659.81;4996634;28;7325;-76
2022/08/24 03:52:38;;;;;;;;;;;;;;;22.55;54.53;100666.78;4997780;28;7203;-76
2022/08/24 03:55:05;;;;;;;;;;;;;;;22.52;54.78;100656.34;4992132;28;7179;-76
2022/08/24 03:57:31;;;;;;;;;;;;;;;22.51;54.68;100661.56;4996397;28;6939;-77
2022/08/24 03:59:57;;;;;;;;;;;;;;;22.49;54.46;100666.75;4989464;28;6787;-76
2022/08/24 04:02:23;;;;;;;;;;;;;;;;;;4981710;28;6983;-76
2022/08/24 04:04:49;;;;;;;;;;;;;;;22.43;54.89;100664.97;4960666;28;6800;-76
2022/08/24 04:07:16;;;;;;;;;;;;;;;22.41;54.69;100668.47;4964245;28;6852;-77
2022/08/24 04:09:41;;;;;;;;;;;;;;;22.37;55.06;100670.19;4956084;28;7181;-75
2022/08/24 04:12:07;;;;;;;;;;;;;;;22.36;54.86;100667.56;4961755;28;6970;-75
2022/08/24 04:14:33;;;;;;;;;;;;;;;22.33;55.02;100666.69;4961670;28;7223;-76
2022/08/24 04:16:59;;;;;;;;;;;;;;;22.29;55.14;100667.53;4994239;28;7204;-75
2022/08/24 04:19:26;;;;;;;;;;;;;;;22.27;55.20;100671.88;4996454;28;7911;-75
2022/08/24 04:21:52;;;;;;;;;;;;;;;22.26;55.28;100666.66;4962234;28;7161;-75
2022/08/24 04:24:19;;;;;;;;;;;;;;;22.24;55.11;100677.09;4989659;28;7577;-75
2022/08/24 04:26:45;;;;;;;;;;;;;;;22.23;55.57;100677.97;4994424;28;6788;-75
2022/08/24 04:29:13;;;;;;;;;;;;;;;22.22;55.56;100676.22;4968690;28;6937;-75
2022/08/24 04:31:41;;;;;;;;;;;;;;;22.20;55.32;100678.81;4997728;28;7035;-75
2022/08/24 04:34:08;;;;;;;;;;;;;;;22.19;55.37;100679.69;4967938;28;7094;-75
2022/08/24 04:36:34;;;;;;;;;;;;;;;22.18;55.75;100677.94;4962874;28;6820;-76
2022/08/24 04:39:01;;;;;;;;;;;;;;;22.19;55.55;100676.19;4972548;28;6800;-76
2022/08/24 04:41:27;;;;;;;;;;;;;;;22.17;55.49;100677.94;4979275;28;6938;-76
2022/08/24 04:43:53;;;;;;;;;;;;;;;22.17;55.87;100683.16;4977839;28;7249;-75
2022/08/24 04:46:19;;;;;;;;;;;;;;;22.16;55.67;100684.91;4975464;28;7295;-75
2022/08/24 04:48:48;;;;;;;;;;;;;;;22.15;55.62;100682.28;4963855;28;7178;-76
2022/08/24 04:51:17;;;;;;;;;;;;;;;22.16;55.88;100686.63;4995808;28;6975;-76
2022/08/24 04:53:45;;;;;;;;;;;;;;;22.16;55.80;100689.25;4965478;28;6800;-75
2022/08/24 04:56:18;;;;;;;;;;;;;;;22.12;55.61;100688.34;4973485;28;7018;-75
2022/08/24 04:58:44;;;;;;;;;;;;;;;22.14;55.89;100696.19;4952059;28;7014;-75
2022/08/24 05:01:15;;;;;;;;;;;;;;;22.13;55.86;100687.47;4991167;28;6844;-75
2022/08/24 05:03:45;;;;;;;;;;;;;;;22.16;55.91;100699.69;4962855;28;6976;-75
2022/08/24 05:06:13;;;;;;;;;;;;;;;22.18;55.95;100695.34;4964052;28;7236;-75
2022/08/24 05:08:40;;;;;;;;;;;;;;;22.22;55.92;100685.78;4995741;28;6946;-75
2022/08/24 05:11:07;;;;;;;;;;;;;;;22.22;55.91;100681.44;4961380;28;8079;-75
2022/08/24 05:13:36;;;;;;;;;;;;;;;22.25;55.80;100689.28;4974920;28;7065;-75
2022/08/24 05:16:07;;;;;;;;;;;;;;;22.27;56.17;100690.16;4963086;28;6860;-75
2022/08/24 05:18:33;;;;;;;;;;;;;;;22.30;56.35;100686.69;4990552;28;6796;-74
2022/08/24 05:20:59;;;;;;;;;;;;;;;22.37;56.09;100692.81;4949986;28;6963;-75
2022/08/24 05:23:28;;;;;;;;;;;;;;;22.42;56.48;100694.56;4978631;28;7248;-74
2022/08/24 05:26:07;;;;;;;;;;;;;;;22.50;56.30;100702.44;4966684;28;7194;-75
2022/08/24 05:28:34;;;;;;;;;;;;;;;22.58;56.51;100705.09;4958570;28;6959;-74
2022/08/24 05:31:11;;;;;;;;;;;;;;;22.66;56.23;100706.00;4965897;28;6991;-74
2022/08/24 05:33:38;;;;;;;;;;;;;;;22.71;56.27;100704.25;4962443;28;7201;-74
2022/08/24 05:36:13;;;;;;;;;;;;;;;22.79;56.05;100714.75;4965331;28;7402;-74
2022/08/24 05:38:39;;;;;;;;;;;;;;;22.87;56.18;100713.00;4962370;28;6795;-75
2022/08/24 05:41:04;;;;;;;;;;;;;;;22.94;56.50;100713.03;4964821;28;6776;-75
2022/08/24 05:43:30;;;;;;;;;;;;;;;23.00;55.86;100713.03;4960566;28;7094;-75
2022/08/24 05:45:56;;;;;;;;;;;;;;;23.10;55.97;100714.81;4968137;28;7227;-75
2022/08/24 05:48:22;;;;;;;;;;;;;;;23.19;55.89;100710.44;4962543;28;6772;-75
2022/08/24 05:50:53;;;;;;;;;;;;;;;23.28;55.90;100703.50;4975652;28;6784;-75
2022/08/24 05:53:19;;;;;;;;;;;;;;;23.37;55.92;100709.59;4961771;28;6895;-75
2022/08/24 05:55:45;;;;;;;;;;;;;;;23.48;55.87;100710.47;4958223;28;7014;-75
2022/08/24 05:58:11;;;;;;;;;;;;;;;23.56;55.29;100711.34;4976013;28;6985;-75
2022/08/24 06:00:37;;;;;;;;;;;;;;;23.66;55.37;100711.31;4955635;28;7820;-75
2022/08/24 06:03:02;;;;;;;;;;;;;;;23.77;55.30;100713.94;4962760;28;7151;-75
2022/08/24 06:05:28;;;;;;;;;;;;;;;23.85;55.18;100714.78;4964321;28;7170;-75
2022/08/24 06:07:54;;;;;;;;;;;;;;;23.94;54.59;100714.75;4965429;28;6792;-75
2022/08/24 06:10:20;;;;;;;;;;;;;;;24.04;55.10;100715.63;4979943;28;7237;-75
2022/08/24 06:12:47;;;;;;;;;;;;;;;24.14;54.67;100721.69;4961932;28;6792;-76
2022/08/24 06:15:14;;;;;;;;;;;;;;;24.24;54.12;100723.44;4973837;28;7003;-75
2022/08/24 06:17:39;;;;;;;;;;;;;;;24.32;54.47;100723.41;4977674;28;7158;-75
2022/08/24 06:20:06;;;;;;;;;;;;;;;24.42;53.80;100724.22;4965834;28;6776;-75
2022/08/24 06:22:32;;;;;;;;;;;;;;;24.53;54.46;100721.56;4963131;28;7216;-75
2022/08/24 06:27:44;;;;;;;;;;;;;;;24.71;53.47;100723.19;4963672;28;6796;-75
2022/08/24 06:30:10;;;;;;;;;;;;;;;24.81;53.54;100724.91;4962716;28;7003;-75
2022/08/24 06:32:38;;;;;;;;;;;;;;;24.90;53.54;100717.88;4973019;28;7248;-75
2022/08/24 06:35:04;;;;;;;;;;;;;;;24.96;53.43;100723.97;4960524;28;6788;-75
2022/08/24 06:37:30;;;;;;;;;;;;;;;25.05;53.01;100728.28;4973323;28;6800;-75
2022/08/24 06:39:58;;;;;;;;;;;;;;;25.15;53.04;100725.59;4958286;28;6982;-75
2022/08/24 06:42:24;;;;;;;;;;;;;;;25.22;53.48;100732.53;4956318;28;6956;-75
2022/08/24 06:44:51;;;;;;;;;;;;;;;25.31;52.83;100728.97;4965091;28;7211;-75
2022/08/24 06:47:17;;;;;;;;;;;;;;;25.38;53.15;100721.00;4961687;28;6800;-75
2022/08/24 06:49:44;;;;;;;;;;;;;;;25.47;52.57;100724.44;4959341;28;7114;-75
2022/08/24 06:52:12;;;;;;;;;;;;;;;25.55;52.17;100721.81;4956994;28;7230;-74
2022/08/24 06:54:38;;;;;;;;;;;;;;;25.67;51.94;100726.03;4959788;28;6904;-74
2022/08/24 06:57:05;;;;;;;;;;;;;;;25.74;51.79;100722.50;4946135;28;7157;-74
2022/08/24 06:59:32;;;;;;;;;;;;;;;25.81;51.90;100724.16;4975474;28;8545;-75
2022/08/24 07:01:57;;;;;;;;;;;;;;;25.87;51.90;100724.09;4945477;28;6984;-75
2022/08/24 07:04:25;;;;;;;;;;;;;;;25.93;52.07;100721.41;4960399;28;6852;-75
2022/08/24 07:06:53;;;;;;;;;;;;;;;26.01;51.65;100728.34;4977145;28;6792;-75
2022/08/24 07:09:23;;;;;;;;;;;;;;;26.08;51.88;100727.38;4958993;28;6806;-75
2022/08/24 07:11:50;;;;;;;;;;;;;;;26.15;51.65;100734.28;4961851;28;7235;-75
2022/08/24 07:14:16;;;;;;;;;;;;;;;26.23;51.53;100733.38;4965799;28;6804;-75
2022/08/24 07:16:42;;;;;;;;;;;;;;;26.31;51.12;100739.41;4977396;28;6760;-75
2022/08/24 07:19:08;;;;;;;;;;;;;;;26.40;51.08;100743.66;4981950;28;7006;-75
2022/08/24 07:21:35;;;;;;;;;;;;;;;26.47;50.81;100732.19;4958565;28;6943;-75
2022/08/24 07:24:02;;;;;;;;;;;;;;;26.58;51.22;100732.06;4964495;28;6864;-75
2022/08/24 07:26:30;;;;;;;;;;;;;;;26.67;50.86;100734.56;4963094;28;6800;-75
2022/08/24 07:29:06;;;;;;;;;;;;;;;26.81;50.87;100738.75;4963641;28;6943;-75
2022/08/24 07:31:37;;;;;;;;;;;;;;;26.94;50.58;100745.59;4955267;28;6804;-74
2022/08/24 07:34:07;;;;;;;;;;;;;;;27.06;50.48;100744.53;4949534;28;7001;-74
2022/08/24 07:36:35;;;;;;;;;;;;;;;27.18;50.08;100751.38;4962588;28;8028;-74
2022/08/24 07:39:01;;;;;;;;;;;;;;;27.29;50.13;100749.44;4949442;28;6982;-74
2022/08/24 07:41:27;;;;;;;;;;;;;;;27.40;50.06;100754.53;4956726;28;7284;-75
2022/08/24 07:43:55;;;;;;;;;;;;;;;27.52;49.56;100755.22;4993373;28;6776;-75
2022/08/24 07:46:21;;;;;;;;;;;;;;;27.62;50.03;100751.56;4958182;28;7793;-75
2022/08/24 07:48:47;;;;;;;;;;;;;;;27.72;49.27;100760.19;4976182;28;7387;-75
2022/08/24 07:51:16;;;;;;;;;;;;;;;27.85;49.47;100758.16;4958275;28;6788;-75
2022/08/24 07:53:43;;;;;;;;;;;;;;;27.96;48.93;100763.25;4962149;28;6800;-75
2022/08/24 07:56:12;;;;;;;;;;;;;;;28.08;49.02;100765.63;4975157;28;7890;-75
2022/08/24 07:58:37;;;;;;;;;;;;;;;28.21;48.28;100754.91;4961005;28;6944;-75
2022/08/24 08:01:05;;;;;;;;;;;;;;;28.34;48.70;100764.28;4956474;28;7860;-75
2022/08/24 08:03:32;;;;;;;;;;;;;;;28.49;48.20;100765.75;4958367;28;8074;-75
2022/08/24 08:06:03;;;;;;;;;;;;;;;28.64;47.84;100772.44;4988981;28;6835;-75
2022/08/24 08:08:31;;;;;;;;;;;;;;;28.79;47.49;100771.25;4990441;28;7274;-75
2022/08/24 08:10:57;;;;;;;;;;;;;;;28.90;47.23;100773.69;4956420;28;7153;-75
2022/08/24 08:13:23;;;;;;;;;;;;;;;29.03;46.23;100776.03;4966854;28;7372;-75
2022/08/24 08:15:49;;;;;;;;;;;;;;;29.14;46.21;100775.78;4959936;28;7967;-75
2022/08/24 08:18:15;;;;;;;;;;;;;;;29.27;45.71;100773.72;4966584;28;6776;-75
2022/08/24 08:20:42;;;;;;;;;;;;;;;29.39;46.11;100776.06;4976172;28;6863;-75
2022/08/24 08:25:56;;;;;;;;;;;;;;;29.67;45.51;100775.38;4960582;28;7575;-75
2022/08/24 08:28:24;;;;;;;;;;;;;;;29.82;45.31;100771.47;4963628;28;6943;-75
2022/08/24 08:30:51;;;;;;;;;;;;;;;29.98;45.19;100771.91;4963416;28;6975;-75
2022/08/24 08:33:17;;;;;;;;;;;;;;;30.12;44.33;100768.03;4968543;28;6796;-75
2022/08/24 08:35:43;;;;;;;;;;;;;;;30.25;44.68;100766.81;4960948;28;6796;-74
2022/08/24 08:38:10;;;;;;;;;;;;;;;30.36;43.97;100774.41;4966194;28;6926;-74
2022/08/24 08:41:07;;;;;;;;;;;;;;;30.45;43.32;100774.13;4961706;28;6955;-74
2022/08/24 08:43:59;;;;;;;;;;;;;;;30.57;42.88;100769.41;4965347;28;7239;-75
2022/08/24 08:46:36;;;;;;;;;;;;;;;30.68;42.27;100769.09;4962683;28;6967;-75
2022/08/24 08:49:43;;;;;;;;;;;;;;;30.83;42.19;100763.34;4961858;28;6868;-75
2022/08/24 08:52:41;;;;;;;;;;;;;;;30.95;41.75;100770.03;4993913;28;7001;-75
2022/08/24 08:55:39;;;;;;;;;;;;;;;31.04;41.12;100772.38;4976457;28;7366;-75
2022/08/24 08:58:32;;;;;;;;;;;;;;;31.15;41.39;100763.25;4968019;28;7537;-75
2022/08/24 09:01:16;;;;;;;;;;;;;;;31.25;40.76;100766.47;4978072;28;6960;-75
2022/08/24 09:04:03;;;;;;;;;;;;;;;31.34;40.66;100757.34;4959580;28;7222;-74
2022/08/24 09:07:31;;;;;;;;;;;;;;;31.42;41.10;100763.25;4964652;28;6939;-74
2022/08/24 09:10:39;;;;;;;;;;;;;;;31.55;40.66;100766.34;4993998;28;8450;-74
2022/08/24 09:14:02;;;;;;;;;;;;;;;31.70;39.84;100755.25;4962796;28;7015;-74
2022/08/24 09:17:00;;;;;;;;;;;;;;;31.82;39.02;100763.69;4995445;28;6999;-74
2022/08/24 09:19:57;;;;;;;;;;;;;;;31.93;38.66;100755.38;4963270;28;6812;-74
2022/08/24 09:22:22;;;;;;;;;;;;;;;32.10;38.69;100752.09;4966032;28;7184;-74
2022/08/24 09:24:51;;;;;;;;;;;;;;;32.31;38.22;100754.88;4973201;28;9161;-74
2022/08/24 09:27:28;;;;;;;;;;;;;;;32.60;37.25;100756.44;4962284;28;6784;-74
2022/08/24 09:30:13;;;;;;;;;;;;;;;33.17;37.01;100757.75;4996003;28;7221;-74
2022/08/24 09:33:09;;;;;;;;;;;;;;;33.87;35.84;100755.69;4961526;28;11222;-75
2022/08/24 09:36:47;;;;;;;;;;;;;;;34.79;34.87;100754.19;4959815;28;7069;-75
2022/08/24 09:39:39;;;;;;;;;;;;;;;35.94;32.34;100753.78;4966835;28;6875;-75
2022/08/24 09:42:34;;;;;;;;;;;;;;;36.82;31.68;100749.94;4976363;28;7918;-75
2022/08/24 09:45:17;;;;;;;;;;;;;;;37.51;30.31;100749.47;4959827;28;6983;-75
2022/08/24 09:48:19;;;;;;;;;;;;;;;38.33;29.70;100738.25;4963498;28;7020;-75
2022/08/24 09:51:07;;;;;;;;;;;;;;;39.21;28.40;100742.38;4991317;28;6880;-75
2022/08/24 09:54:07;;;;;;;;;;;;;;;40.04;27.18;100732.22;4962250;28;7221;-75
2022/08/24 09:57:00;;;;;;;;;;;;;;;40.68;25.79;100733.00;4955533;28;6824;-75
2022/08/24 09:59:54;;;;;;;;;;;;;;;41.03;24.97;100737.53;4960503;28;7186;-75
2022/08/24 10:02:57;;;;;;;;;;;;;;;41.39;24.30;100739.38;4958411;28;6932;-76
2022/08/24 10:06:02;;;;;;;;;;;;;;;41.67;23.73;100731.88;4947411;28;7345;-75
2022/08/24 10:09:07;;;;;;;;;;;;;;;41.69;23.70;100725.38;4991090;28;7078;-76
2022/08/24 10:12:03;;;;;;;;;;;;;;;42.01;23.96;100721.06;4989019;28;6997;-76
2022/08/24 10:14:51;;;;;;;;;;;;;;;42.37;23.26;100718.22;4977551;28;7194;-76
2022/08/24 10:17:43;;;;;;;;;;;;;;;42.53;22.55;100717.84;4960602;28;7142;-76
2022/08/24 10:20:18;;;;;;;;;;;;;;;42.50;22.29;100718.09;4963963;28;6877;-76
2022/08/24 10:23:18;;;;;;;;;;;;;;;42.11;22.19;100713.16;4996043;28;7099;-75
2022/08/24 10:26:22;;;;;;;;;;;;;;;41.43;22.59;100716.63;4963344;28;6827;-75
2022/08/24 10:29:24;;;;;;;;;;;;;;;41.13;22.57;100715.34;4977649;28;6807;-75
2022/08/24 10:32:37;;;;;;;;;;;;;;;40.61;22.44;100716.50;4960941;28;6899;-75
2022/08/24 10:35:57;;;;;;;;;;;;;;;39.68;23.18;100715.91;4959161;28;7160;-75
2022/08/24 10:42:08;;;;;;;;;;;;;;;37.83;24.82;100713.72;4960711;28;6804;-75
2022/08/24 10:45:02;;;;;;;;;;;;;;;37.21;25.79;100719.19;4991740;28;6998;-75
2022/08/24 10:47:29;;;;;;;;;;;;;;;36.70;25.69;100714.13;4965341;28;7273;-74
2022/08/24 10:50:50;;;;;;;;;;;;;;;36.32;26.79;100717.13;4963333;28;7236;-75
2022/08/24 10:53:31;;;;;;;;;;;;;;;35.96;27.20;100706.53;4963613;28;6796;-75
2022/08/24 10:56:10;;;;;;;;;;;;;;;35.78;27.21;100705.75;4974372;28;6812;-75
2022/08/24 10:59:15;;;;;;;;;;;;;;;35.95;28.26;100701.31;4964505;28;7226;-75
2022/08/24 11:02:26;;;;;;;;;;;;;;;36.72;27.13;100703.34;4958402;28;6816;-75
2022/08/24 11:05:04;;;;;;;;;;;;;;;37.33;26.28;100703.38;4962440;28;6808;-75
2022/08/24 11:07:31;;;;;;;;;;;;;;;37.49;26.12;100696.13;4960001;28;7257;-75
2022/08/24 11:10:08;;;;;;;;;;;;;;;37.56;25.82;100693.09;4958120;28;8472;-75
2022/08/24 11:12:42;;;;;;;;;;;;;;;37.77;25.70;100683.78;4964514;28;6812;-75
2022/08/24 11:15:17;;;;;;;;;;;;;;;38.18;25.40;100684.75;4942391;28;9785;-75
2022/08/24 11:18:03;;;;;;;;;;;;;;;38.92;24.81;100682.69;4994302;28;7226;-75
2022/08/24 11:20:43;;;;;;;;;;;;;;;39.76;23.90;100679.66;4959956;28;6793;-75
2022/08/24 11:23:19;;;;;;;;;;;;;;;40.76;23.44;100676.00;4940574;28;7264;-75
2022/08/24 11:26:04;;;;;;;;;;;;;;;41.97;22.20;100663.97;4956923;28;6998;-76
2022/08/24 11:28:42;;;;;;;;;;;;;;;43.07;20.86;100663.94;4976232;28;7041;-75
2022/08/24 11:31:21;;;;;;;;;;;;;;;43.77;19.97;100663.31;4988048;28;6830;-75
2022/08/24 11:33:57;;;;;;;;;;;;;;;44.15;19.29;100663.53;4997091;28;6978;-76
2022/08/24 11:36:30;;;;;;;;;;;;;;;44.23;18.71;100659.16;4960168;28;6823;-75
2022/08/24 11:39:23;;;;;;;;;;;;;;;44.26;18.80;100658.03;4958945;28;7432;-76
2022/08/24 11:42:24;;;;;;;;;;;;;;;44.14;18.95;100657.25;4959325;28;7060;-75
2022/08/24 11:45:13;;;;;;;;;;;;;;;44.02;18.42;100656.53;4980757;28;7027;-75
2022/08/24 11:47:47;;;;;;;;;;;;;;;43.99;18.39;100648.72;4978764;28;7256;-75
2022/08/24 11:50:30;;;;;;;;;;;;;;;43.98;18.12;100649.72;4962258;28;7223;-75
2022/08/24 11:53:23;;;;;;;;;;;;;;;43.97;18.38;100646.16;4971513;28;7802;-75
2022/08/24 11:55:51;;;;;;;;;;;;;;;44.02;18.82;100645.72;4960983;28;7761;-76
2022/08/24 11:58:39;;;;;;;;;;;;;;;44.50;18.67;100643.22;4962213;28;6802;-76
2022/08/24 12:01:39;;;;;;;;;;;;;;;45.12;17.79;100640.19;4958338;28;6945;-75
2022/08/24 12:05:06;;;;;;;;;;;;;;;45.12;16.98;100647.44;4986020;28;6935;-75
2022/08/24 12:07:52;;;;;;;;;;;;;;;44.91;17.20;100645.75;5020372;28;7236;-76
2022/08/24 12:10:21;;;;;;;;;;;;;;;44.95;17.37;100639.03;5020306;28;6803;-76
2022/08/24 12:13:31;;;;;;;;;;;;;;;45.20;17.12;100624.06;4984093;28;6796;-75
2022/08/24 12:16:29;;;;;;;;;;;;;;;45.46;16.85;100634.22;4971671;28;7300;-76
2022/08/24 12:19:21;;;;;;;;;;;;;;;45.55;16.50;100634.31;4964913;28;7372;-75
2022/08/24 12:21:53;;;;;;;;;;;;;;;45.46;16.45;100627.97;4963555;28;7244;-75
2022/08/24 12:24:47;;;;;;;;;;;;;;;45.47;16.35;100621.56;4966068;28;7014;-75
2022/08/24 12:27:31;;;;;;;;;;;;;;;45.59;16.53;100628.44;4962730;28;7080;-76
2022/08/24 12:30:07;;;;;;;;;;;;;;;45.74;16.24;100614.41;4980049;28;6815;-75
2022/08/24 12:33:02;;;;;;;;;;;;;;;45.55;16.25;100626.19;4957733;28;7667;-75
2022/08/24 12:35:50;;;;;;;;;;;;;;;45.50;16.58;100621.25;4982623;28;7088;-76
2022/08/24 12:38:25;;;;;;;;;;;;;;;45.71;16.45;100625.53;4941264;28;6997;-75
2022/08/24 12:41:06;;;;;;;;;;;;;;;45.80;16.39;100624.66;4962038;28;6796;-76
2022/08/24 12:43:48;;;;;;;;;;;;;;;45.97;16.14;100620.25;4994047;28;7224;-76
2022/08/24 12:46:19;;;;;;;;;;;;;;;46.15;16.46;100622.09;4979607;28;6808;-76
2022/08/24 12:48:58;;;;;;;;;;;;;;;46.38;16.58;100616.25;4985518;28;7006;-76
2022/08/24 12:52:03;;;;;;;;;;;;;;;46.64;16.01;100620.84;4962361;28;6873;-77
2022/08/24 12:55:01;;;;;;;;;;;;;;;46.76;15.54;100619.59;4961321;28;7264;-76
2022/08/24 12:58:07;;;;;;;;;;;;;;;46.50;15.29;100623.13;4967728;28;6812;-76
2022/08/24 13:00:44;;;;;;;;;;;;;;;46.02;15.71;100617.94;4997717;28;7006;-76
2022/08/24 13:03:34;;;;;;;;;;;;;;;45.72;16.03;100622.69;4960869;28;7044;-76
2022/08/24 13:06:19;;;;;;;;;;;;;;;45.63;16.08;100627.13;4968060;28;7130;-76
2022/08/24 13:08:50;;;;;;;;;;;;;;;45.61;15.90;100622.91;4978196;28;6824;-76
2022/08/24 13:11:26;;;;;;;;;;;;;;;45.58;16.05;100621.34;4967761;28;7278;-76
2022/08/24 13:14:11;;;;;;;;;;;;;;;45.60;15.55;100624.75;4994962;28;6823;-76
2022/08/24 13:17:09;;;;;;;;;;;;;;;45.47;15.62;100626.97;4968829;28;7209;-77
2022/08/24 13:19:43;;;;;;;;;;;;;;;45.32;15.76;100618.47;4943166;28;6980;-76
2022/08/24 13:22:09;;;;;;;;;;;;;;;45.22;16.14;100608.53;4983723;28;7260;-76
2022/08/24 13:24:34;;;;;;;;;;;;;;;45.13;16.04;100614.84;4963637;28;6784;-76
2022/08/24 13:27:12;;;;;;;;;;;;;;;44.74;16.44;100618.47;4996352;28;7254;-76
2022/08/24 13:30:04;;;;;;;;;;;;;;;44.03;16.57;100619.63;4966072;28;6792;-76
2022/08/24 13:32:42;;;;;;;;;;;;;;;42.92;17.44;100618.47;4968151;28;6881;-76
2022/08/24 13:35:39;;;;;;;;;;;;;;;42.07;17.80;100607.56;4960737;28;7954;-76
2022/08/24 13:38:43;;;;;;;;;;;;;;;42.02;18.30;100602.53;4967319;28;6780;-76